createdAt,value
2017-09-21T00:01:05.008Z,13.40
2017-09-21T00:03:33.080Z,13.40
2017-09-21T00:06:01.151Z,13.40
2017-09-21T00:08:29.304Z,13.30
2017-09-21T00:10:58.142Z,13.40
2017-09-21T00:13:26.212Z,13.30
2017-09-21T00:15:54.278Z,13.30
2017-09-21T00:18:22.351Z,13.30
2017-09-21T00:20:51.298Z,13.30
2017-09-21T00:23:19.367Z,13.30
2017-09-21T00:25:47.447Z,13.30
2017-09-21T00:28:15.642Z,13.40
2017-09-21T00:30:43.698Z,13.40
2017-09-21T00:33:11.798Z,13.40
2017-09-21T00:35:39.971Z,13.40
2017-09-21T00:38:08.119Z,13.30
2017-09-21T00:40:36.975Z,13.20
2017-09-21T00:43:05.041Z,13.20
2017-09-21T00:45:33.135Z,13.20
2017-09-21T00:48:01.960Z,13.20
2017-09-21T00:50:31.271Z,13.20
2017-09-21T00:52:59.347Z,13.20
2017-09-21T00:55:27.411Z,13.10
2017-09-21T00:57:55.490Z,13.10
2017-09-21T01:00:23.563Z,13.00
2017-09-21T01:02:51.648Z,13.00
2017-09-21T01:05:19.728Z,12.90
2017-09-21T01:07:47.808Z,12.90
2017-09-21T01:10:15.872Z,12.90
2017-09-21T01:12:43.955Z,12.80
2017-09-21T01:15:12.014Z,12.80
2017-09-21T01:17:40.071Z,12.80
2017-09-21T01:20:08.153Z,12.70
2017-09-21T01:22:36.216Z,12.70
2017-09-21T01:25:04.295Z,12.60
2017-09-21T01:27:32.354Z,12.70
2017-09-21T01:30:00.450Z,12.60
2017-09-21T01:32:28.518Z,12.60
2017-09-21T01:34:56.716Z,12.60
2017-09-21T01:37:24.779Z,12.60
2017-09-21T01:39:52.832Z,12.60
2017-09-21T01:42:20.927Z,12.60
2017-09-21T01:44:48.991Z,12.50
2017-09-21T01:47:17.059Z,12.60
2017-09-21T01:49:45.138Z,12.50
2017-09-21T01:52:13.211Z,12.40
2017-09-21T01:54:41.307Z,12.40
2017-09-21T01:57:09.433Z,12.40
2017-09-21T01:59:37.579Z,12.40
2017-09-21T02:02:06.403Z,12.30
2017-09-21T02:04:34.470Z,12.30
2017-09-21T02:07:02.558Z,12.30
2017-09-21T02:09:30.619Z,12.30
2017-09-21T02:11:58.715Z,12.30
2017-09-21T02:14:26.783Z,12.30
2017-09-21T02:16:54.850Z,12.40
2017-09-21T02:19:22.923Z,12.30
2017-09-21T02:21:50.991Z,12.30
2017-09-21T02:24:19.072Z,12.30
2017-09-21T02:26:47.150Z,12.30
2017-09-21T02:29:15.230Z,12.30
2017-09-21T02:31:43.286Z,12.30
2017-09-21T02:34:11.971Z,12.30
2017-09-21T02:36:40.030Z,12.40
2017-09-21T02:39:08.090Z,12.40
2017-09-21T02:41:36.160Z,12.30
2017-09-21T02:44:04.219Z,12.30
2017-09-21T02:46:32.299Z,12.30
2017-09-21T02:49:00.372Z,12.30
2017-09-21T02:51:28.443Z,12.30
2017-09-21T02:53:56.524Z,12.30
2017-09-21T02:56:24.770Z,12.30
2017-09-21T02:58:52.840Z,12.30
2017-09-21T03:01:20.908Z,12.30
2017-09-21T03:03:48.983Z,12.30
2017-09-21T03:06:17.047Z,12.30
2017-09-21T03:08:45.145Z,12.30
2017-09-21T03:11:13.199Z,12.30
2017-09-21T03:13:41.263Z,12.30
2017-09-21T03:16:09.339Z,12.30
2017-09-21T03:18:37.403Z,12.20
2017-09-21T03:21:05.502Z,12.20
2017-09-21T03:23:33.555Z,12.20
2017-09-21T03:26:01.619Z,12.20
2017-09-21T03:28:29.685Z,12.20
2017-09-21T03:30:57.759Z,12.20
2017-09-21T03:33:25.819Z,12.20
2017-09-21T03:35:53.903Z,12.20
2017-09-21T03:38:21.974Z,12.20
2017-09-21T03:40:50.047Z,12.30
2017-09-21T03:43:18.201Z,12.30
2017-09-21T03:45:46.291Z,12.30
2017-09-21T03:48:14.348Z,12.30
2017-09-21T03:50:42.411Z,12.30
2017-09-21T03:53:10.486Z,12.40
2017-09-21T03:55:38.559Z,12.40
2017-09-21T03:58:06.626Z,12.40
2017-09-21T04:00:34.731Z,12.50
2017-09-21T04:03:03.570Z,12.60
2017-09-21T04:05:31.660Z,12.50
2017-09-21T04:07:59.727Z,12.60
2017-09-21T04:10:27.791Z,12.70
2017-09-21T04:12:55.871Z,12.70
2017-09-21T04:15:23.948Z,12.60
2017-09-21T04:17:52.043Z,12.60
2017-09-21T04:20:20.908Z,12.60
2017-09-21T04:22:49.556Z,12.60
2017-09-21T04:25:17.653Z,12.70
2017-09-21T04:27:45.719Z,12.70
2017-09-21T04:30:13.791Z,12.60
2017-09-21T04:32:41.852Z,12.60
2017-09-21T04:35:09.923Z,12.60
2017-09-21T04:37:37.992Z,12.60
2017-09-21T04:40:06.064Z,12.70
2017-09-21T04:42:34.928Z,12.70
2017-09-21T04:45:03.008Z,12.70
2017-09-21T04:47:31.086Z,12.70
2017-09-21T04:49:59.139Z,12.80
2017-09-21T04:52:27.223Z,12.80
2017-09-21T04:54:55.301Z,12.80
2017-09-21T04:57:24.143Z,12.70
2017-09-21T04:59:52.219Z,12.70
2017-09-21T05:02:20.356Z,12.80
2017-09-21T05:04:49.201Z,12.80
2017-09-21T05:07:17.275Z,12.70
2017-09-21T05:09:45.352Z,12.80
2017-09-21T05:12:13.443Z,12.80
2017-09-21T05:14:42.279Z,12.80
2017-09-21T05:17:10.347Z,12.70
2017-09-21T05:19:38.424Z,12.70
2017-09-21T05:22:06.510Z,12.70
2017-09-21T05:24:34.575Z,12.80
2017-09-21T05:27:02.659Z,12.90
2017-09-21T05:29:30.730Z,12.90
2017-09-21T05:31:58.807Z,12.90
2017-09-21T05:34:26.867Z,12.80
2017-09-21T05:36:54.941Z,12.80
2017-09-21T05:39:23.011Z,12.80
2017-09-21T05:41:51.097Z,12.80
2017-09-21T05:44:19.167Z,12.80
2017-09-21T05:46:48.012Z,12.80
2017-09-21T05:49:16.137Z,12.70
2017-09-21T05:51:44.199Z,12.80
2017-09-21T05:54:12.291Z,12.80
2017-09-21T05:56:41.148Z,12.80
2017-09-21T05:59:09.219Z,12.80
2017-09-21T06:01:37.299Z,12.80
2017-09-21T06:04:05.360Z,12.80
2017-09-21T06:06:33.458Z,12.70
2017-09-21T06:09:02.306Z,12.70
2017-09-21T06:11:31.228Z,12.60
2017-09-21T06:14:00.802Z,12.80
2017-09-21T06:16:28.870Z,12.80
2017-09-21T06:18:56.972Z,12.90
2017-09-21T06:21:25.056Z,12.90
2017-09-21T06:23:53.947Z,12.90
2017-09-21T06:26:22.007Z,12.90
2017-09-21T06:28:50.087Z,13.00
2017-09-21T06:31:19.010Z,13.10
2017-09-21T06:33:47.094Z,13.10
2017-09-21T06:36:15.167Z,13.20
2017-09-21T06:38:43.254Z,13.30
2017-09-21T06:41:11.315Z,13.30
2017-09-21T06:43:39.410Z,13.40
2017-09-21T06:46:07.468Z,13.50
2017-09-21T06:48:35.555Z,13.60
2017-09-21T06:51:03.618Z,13.60
2017-09-21T06:53:31.705Z,13.70
2017-09-21T06:55:59.780Z,13.80
2017-09-21T06:58:27.851Z,13.90
2017-09-21T07:00:55.947Z,13.90
2017-09-21T07:03:24.029Z,14.00
2017-09-21T07:05:52.086Z,14.00
2017-09-21T07:08:20.156Z,14.10
2017-09-21T07:10:48.230Z,14.20
2017-09-21T07:13:16.307Z,14.20
2017-09-21T07:15:45.262Z,14.10
2017-09-21T07:18:13.350Z,14.10
2017-09-21T07:20:41.431Z,14.10
2017-09-21T07:23:09.532Z,14.20
2017-09-21T07:25:38.373Z,14.40
2017-09-21T07:28:06.447Z,14.30
2017-09-21T07:30:34.537Z,14.40
2017-09-21T07:33:02.607Z,14.50
2017-09-21T07:35:30.681Z,14.50
2017-09-21T07:37:59.521Z,14.80
2017-09-21T07:40:27.591Z,14.80
2017-09-21T07:42:55.674Z,14.90
2017-09-21T07:45:25.239Z,15.20
2017-09-21T07:47:53.317Z,15.20
2017-09-21T07:50:21.392Z,15.40
2017-09-21T07:52:49.498Z,15.30
2017-09-21T07:55:17.552Z,15.40
2017-09-21T07:57:45.649Z,15.40
2017-09-21T08:00:14.488Z,15.60
2017-09-21T08:02:42.560Z,15.50
2017-09-21T08:05:10.668Z,15.70
2017-09-21T08:07:38.732Z,15.70
2017-09-21T08:10:06.807Z,15.80
2017-09-21T08:12:34.874Z,16.10
2017-09-21T08:15:02.959Z,16.20
2017-09-21T08:17:31.007Z,16.50
2017-09-21T08:19:59.066Z,16.50
2017-09-21T08:22:27.155Z,16.70
2017-09-21T08:24:55.223Z,17.00
2017-09-21T08:27:23.291Z,17.20
2017-09-21T08:29:51.359Z,17.40
2017-09-21T08:32:19.439Z,17.60
2017-09-21T08:34:47.507Z,17.80
2017-09-21T08:37:15.575Z,17.90
2017-09-21T08:39:43.646Z,18.00
2017-09-21T08:42:11.742Z,18.10
2017-09-21T08:44:39.813Z,18.20
2017-09-21T08:47:07.907Z,18.30
2017-09-21T08:49:35.996Z,18.40
2017-09-21T08:52:04.836Z,18.60
2017-09-21T08:54:32.926Z,18.50
2017-09-21T08:57:01.050Z,18.70
2017-09-21T08:59:29.128Z,18.80
2017-09-21T09:01:57.207Z,18.90
2017-09-21T09:04:25.299Z,19.30
2017-09-21T09:06:53.848Z,19.40
2017-09-21T09:09:21.922Z,19.50
2017-09-21T09:11:49.991Z,19.70
2017-09-21T09:14:18.065Z,20.00
2017-09-21T09:16:46.143Z,20.20
2017-09-21T09:19:14.223Z,20.30
2017-09-21T09:21:42.274Z,20.50
2017-09-21T09:24:11.544Z,20.50
2017-09-21T09:26:39.615Z,20.70
2017-09-21T09:29:07.729Z,20.60
2017-09-21T09:31:35.759Z,20.80
2017-09-21T09:34:03.823Z,21.30
2017-09-21T09:36:31.894Z,21.80
2017-09-21T09:38:59.952Z,23.10
2017-09-21T09:41:28.022Z,25.20
2017-09-21T09:43:56.089Z,27.20
2017-09-21T09:46:24.318Z,28.50
2017-09-21T09:48:52.386Z,29.60
2017-09-21T09:51:20.455Z,30.70
2017-09-21T09:53:49.293Z,32.90
2017-09-21T09:56:17.335Z,32.80
2017-09-21T09:58:45.451Z,34.10
2017-09-21T10:01:13.510Z,35.10
2017-09-21T10:03:41.624Z,35.80
2017-09-21T10:06:09.651Z,36.10
2017-09-21T10:08:39.234Z,37.10
2017-09-21T10:11:07.297Z,37.10
2017-09-21T10:16:36.958Z,39.20
2017-09-21T10:19:05.027Z,39.10
2017-09-21T10:21:33.146Z,39.90
2017-09-21T10:24:01.215Z,39.80
2017-09-21T10:26:29.298Z,39.70
2017-09-21T10:28:57.373Z,39.30
2017-09-21T10:31:25.432Z,39.10
2017-09-21T10:33:54.247Z,39.50
2017-09-21T10:36:22.347Z,39.40
2017-09-21T10:38:50.416Z,39.70
2017-09-21T10:41:19.246Z,39.20
2017-09-21T10:43:48.083Z,39.40
2017-09-21T10:46:16.901Z,39.60
2017-09-21T10:48:45.004Z,39.50
2017-09-21T10:51:13.855Z,40.40
2017-09-21T10:53:41.919Z,40.40
2017-09-21T10:56:10.023Z,40.30
2017-09-21T10:58:38.059Z,39.20
2017-09-21T11:01:06.135Z,38.80
2017-09-21T11:03:34.243Z,38.60
2017-09-21T11:06:02.302Z,38.70
2017-09-21T11:08:30.367Z,38.60
2017-09-21T11:10:58.450Z,38.10
2017-09-21T11:13:26.524Z,38.50
2017-09-21T11:15:54.646Z,38.90
2017-09-21T11:18:22.727Z,38.50
2017-09-21T11:20:50.800Z,38.20
2017-09-21T11:23:18.866Z,38.40
2017-09-21T11:25:46.931Z,39.20
2017-09-21T11:28:14.995Z,39.50
2017-09-21T11:30:43.063Z,39.70
2017-09-21T11:33:11.130Z,39.30
2017-09-21T11:35:39.988Z,37.90
2017-09-21T11:38:08.050Z,37.90
2017-09-21T11:40:36.156Z,38.10
2017-09-21T11:43:04.198Z,38.10
2017-09-21T11:45:32.258Z,36.70
2017-09-21T11:48:00.327Z,34.40
2017-09-21T11:50:28.397Z,31.90
2017-09-21T11:52:56.673Z,30.10
2017-09-21T11:55:24.727Z,28.00
2017-09-21T11:57:52.868Z,26.60
2017-09-21T12:00:20.918Z,25.60
2017-09-21T12:02:48.986Z,24.90
2017-09-21T12:05:17.087Z,24.70
2017-09-21T12:07:45.903Z,24.50
2017-09-21T12:10:13.987Z,24.40
2017-09-21T12:12:42.066Z,24.20
2017-09-21T12:15:10.140Z,24.10
2017-09-21T12:17:38.211Z,23.90
2017-09-21T12:20:06.271Z,23.80
2017-09-21T12:22:34.328Z,23.50
2017-09-21T12:25:02.416Z,23.50
2017-09-21T12:27:30.483Z,23.40
2017-09-21T12:29:58.552Z,23.50
2017-09-21T12:32:26.629Z,23.60
2017-09-21T12:34:54.788Z,23.70
2017-09-21T12:37:22.825Z,23.80
2017-09-21T12:39:51.650Z,24.20
2017-09-21T12:42:19.751Z,24.10
2017-09-21T12:44:47.844Z,24.20
2017-09-21T12:47:16.672Z,24.10
2017-09-21T12:49:44.740Z,24.10
2017-09-21T12:52:12.793Z,24.10
2017-09-21T12:54:40.863Z,24.00
2017-09-21T12:57:08.936Z,23.90
2017-09-21T12:59:36.991Z,23.90
2017-09-21T13:02:05.092Z,23.90
2017-09-21T13:04:33.135Z,23.70
2017-09-21T13:07:01.183Z,23.70
2017-09-21T13:09:30.024Z,23.90
2017-09-21T13:11:58.115Z,23.80
2017-09-21T13:14:26.187Z,24.00
2017-09-21T13:16:54.231Z,24.00
2017-09-21T13:19:22.358Z,24.10
2017-09-21T13:21:51.207Z,24.30
2017-09-21T13:24:19.276Z,24.30
2017-09-21T13:26:47.331Z,24.40
2017-09-21T13:29:15.831Z,24.10
2017-09-21T13:31:43.900Z,23.90
2017-09-21T13:34:11.960Z,23.90
2017-09-21T13:36:40.013Z,23.90
2017-09-21T13:39:08.533Z,23.90
2017-09-21T13:41:36.621Z,24.00
2017-09-21T13:44:04.732Z,23.80
2017-09-21T13:46:32.790Z,23.60
2017-09-21T13:49:01.798Z,23.30
2017-09-21T13:51:29.872Z,23.20
2017-09-21T13:53:57.951Z,23.10
2017-09-21T13:56:26.001Z,23.00
2017-09-21T13:58:54.075Z,23.00
2017-09-21T14:01:22.170Z,23.00
2017-09-21T14:03:50.232Z,23.00
2017-09-21T14:06:18.295Z,22.90
2017-09-21T14:08:46.387Z,22.80
2017-09-21T14:11:14.438Z,22.90
2017-09-21T14:13:42.499Z,22.80
2017-09-21T14:16:10.583Z,22.80
2017-09-21T14:18:38.642Z,22.70
2017-09-21T14:21:06.772Z,22.60
2017-09-21T14:23:34.860Z,22.60
2017-09-21T14:26:02.910Z,22.60
2017-09-21T14:28:30.983Z,22.60
2017-09-21T14:30:59.040Z,22.60
2017-09-21T14:33:27.127Z,22.50
2017-09-21T14:35:55.181Z,22.50
2017-09-21T14:38:23.263Z,22.50
2017-09-21T14:40:51.341Z,22.50
2017-09-21T14:43:19.413Z,22.50
2017-09-21T14:45:47.476Z,22.50
2017-09-21T14:48:16.526Z,22.60
2017-09-21T14:50:44.560Z,22.50
2017-09-21T14:53:12.623Z,22.70
2017-09-21T14:55:40.708Z,22.70
2017-09-21T14:58:08.782Z,22.80
2017-09-21T15:00:36.847Z,22.90
2017-09-21T15:03:04.913Z,22.80
2017-09-21T15:05:32.994Z,22.90
2017-09-21T15:08:01.107Z,22.80
2017-09-21T15:10:30.063Z,22.60
2017-09-21T15:12:58.110Z,22.60
2017-09-21T15:15:26.203Z,22.50
2017-09-21T15:17:54.255Z,22.50
2017-09-21T15:20:22.342Z,22.60
2017-09-21T15:22:50.427Z,22.50
2017-09-21T15:25:18.507Z,22.50
2017-09-21T15:27:46.552Z,22.40
2017-09-21T15:30:14.638Z,22.40
2017-09-21T15:32:42.684Z,22.30
2017-09-21T15:35:10.738Z,22.10
2017-09-21T15:37:38.836Z,22.00
2017-09-21T15:40:07.536Z,22.00
2017-09-21T15:42:35.602Z,21.90
2017-09-21T15:45:03.663Z,21.80
2017-09-21T15:47:31.732Z,21.70
2017-09-21T15:49:59.795Z,21.70
2017-09-21T15:52:27.886Z,21.60
2017-09-21T15:54:55.960Z,21.60
2017-09-21T15:57:24.041Z,21.50
2017-09-21T15:59:52.099Z,21.50
2017-09-21T16:02:20.169Z,21.40
2017-09-21T16:04:48.249Z,21.30
2017-09-21T16:07:16.303Z,21.20
2017-09-21T16:09:44.406Z,21.20
2017-09-21T16:12:12.469Z,21.00
2017-09-21T16:14:40.533Z,20.80
2017-09-21T16:17:08.601Z,20.80
2017-09-21T16:19:36.715Z,20.60
2017-09-21T16:22:04.772Z,20.50
2017-09-21T16:24:32.840Z,20.50
2017-09-21T16:27:00.922Z,20.40
2017-09-21T16:29:29.041Z,20.30
2017-09-21T16:31:58.372Z,20.20
2017-09-21T16:34:26.475Z,20.10
2017-09-21T16:36:54.568Z,20.10
2017-09-21T16:39:22.649Z,20.00
2017-09-21T16:41:50.768Z,19.90
2017-09-21T16:44:18.895Z,19.90
2017-09-21T16:46:48.664Z,19.70
2017-09-21T16:49:16.818Z,19.70
2017-09-21T16:51:45.148Z,19.60
2017-09-21T16:54:13.221Z,19.50
2017-09-21T16:56:41.397Z,19.50
2017-09-21T16:59:09.485Z,19.40
2017-09-21T17:01:37.572Z,19.30
2017-09-21T17:04:05.665Z,19.30
2017-09-21T17:06:34.585Z,19.20
2017-09-21T17:09:03.451Z,19.20
2017-09-21T17:11:31.534Z,19.10
2017-09-21T17:13:59.583Z,19.10
2017-09-21T17:16:28.463Z,19.00
2017-09-21T17:18:56.745Z,18.90
2017-09-21T17:21:24.813Z,18.80
2017-09-21T17:23:52.887Z,18.70
2017-09-21T17:26:20.952Z,18.60
2017-09-21T17:28:49.026Z,18.50
2017-09-21T17:31:17.452Z,18.40
2017-09-21T17:33:45.524Z,18.30
2017-09-21T17:36:13.563Z,18.30
2017-09-21T17:38:42.435Z,18.20
2017-09-21T17:41:10.499Z,18.20
2017-09-21T17:43:38.587Z,18.10
2017-09-21T17:46:06.667Z,18.00
2017-09-21T17:48:35.491Z,17.80
2017-09-21T17:51:03.584Z,17.70
2017-09-21T17:53:32.414Z,17.60
2017-09-21T17:56:00.496Z,17.60
2017-09-21T17:58:28.586Z,17.50
2017-09-21T18:00:56.675Z,17.50
2017-09-21T18:03:25.535Z,17.50
2017-09-21T18:05:53.621Z,17.40
2017-09-21T18:08:21.695Z,17.50
2017-09-21T18:10:49.764Z,17.40
2017-09-21T18:13:17.924Z,17.40
2017-09-21T18:15:45.996Z,17.30
2017-09-21T18:18:14.072Z,17.20
2017-09-21T18:20:42.145Z,17.20
2017-09-21T18:23:10.216Z,17.20
2017-09-21T18:25:38.296Z,17.10
2017-09-21T18:28:07.167Z,17.10
2017-09-21T18:30:35.245Z,17.00
2017-09-21T18:33:03.315Z,17.10
2017-09-21T18:35:32.219Z,17.10
2017-09-21T18:38:00.304Z,17.10
2017-09-21T18:40:29.140Z,17.00
2017-09-21T18:42:57.214Z,16.90
2017-09-21T18:45:25.431Z,16.90
2017-09-21T18:47:55.011Z,16.90
2017-09-21T18:50:23.089Z,16.80
2017-09-21T18:52:51.215Z,16.90
2017-09-21T18:55:19.296Z,16.90
2017-09-21T18:57:47.397Z,16.80
2017-09-21T19:00:18.841Z,16.80
2017-09-21T19:02:47.795Z,16.80
2017-09-21T19:05:15.874Z,16.70
2017-09-21T19:07:43.981Z,16.70
2017-09-21T19:10:12.885Z,16.70
2017-09-21T19:12:41.719Z,16.60
2017-09-21T19:15:09.804Z,16.60
2017-09-21T19:17:39.398Z,16.60
2017-09-21T19:20:07.510Z,16.60
2017-09-21T19:22:36.339Z,16.60
2017-09-21T19:25:04.453Z,16.60
2017-09-21T19:27:32.609Z,16.60
2017-09-21T19:30:00.689Z,16.60
2017-09-21T19:32:28.757Z,16.60
2017-09-21T19:34:56.822Z,16.60
2017-09-21T19:37:24.905Z,16.60
2017-09-21T19:39:53.026Z,16.50
2017-09-21T19:42:21.126Z,16.40
2017-09-21T19:44:49.204Z,16.40
2017-09-21T19:47:17.317Z,16.40
2017-09-21T19:49:46.603Z,16.40
2017-09-21T19:52:15.432Z,16.30
2017-09-21T19:54:43.537Z,16.30
2017-09-21T19:57:11.705Z,16.20
2017-09-21T19:59:39.829Z,16.20
2017-09-21T20:02:07.907Z,16.20
2017-09-21T20:04:36.018Z,16.20
2017-09-21T20:07:04.117Z,16.20
2017-09-21T20:09:33.044Z,16.10
2017-09-21T20:12:01.141Z,16.00
2017-09-21T20:14:29.232Z,16.10
2017-09-21T20:16:57.288Z,16.00
2017-09-21T20:19:25.432Z,15.90
2017-09-21T20:21:53.692Z,15.90
2017-09-21T20:24:23.304Z,15.90
2017-09-21T20:26:51.558Z,15.80
2017-09-21T20:29:19.654Z,15.80
2017-09-21T20:31:47.754Z,15.80
2017-09-21T20:34:16.669Z,15.80
2017-09-21T20:36:44.736Z,15.80
2017-09-21T20:39:12.800Z,15.80
2017-09-21T20:41:40.863Z,15.70
2017-09-21T20:44:08.935Z,15.70
2017-09-21T20:46:38.542Z,15.60
2017-09-21T20:49:06.766Z,15.60
2017-09-21T20:51:35.583Z,15.70
2017-09-21T20:54:03.670Z,15.60
2017-09-21T20:56:31.732Z,15.60
2017-09-21T20:58:59.794Z,15.60
2017-09-21T21:04:02.983Z,15.60
2017-09-21T21:06:31.154Z,15.50
2017-09-21T21:08:59.213Z,15.60
2017-09-21T21:11:27.285Z,15.50
2017-09-21T21:13:56.185Z,15.50
2017-09-21T21:16:24.268Z,15.50
2017-09-21T21:18:52.339Z,15.50
2017-09-21T21:21:20.407Z,15.50
2017-09-21T21:23:48.499Z,15.50
2017-09-21T21:26:16.566Z,15.50
2017-09-21T21:28:44.654Z,15.50
2017-09-21T21:31:12.862Z,15.40
2017-09-21T21:33:40.945Z,15.40
2017-09-21T21:36:09.024Z,15.40
2017-09-21T21:38:37.089Z,15.30
2017-09-21T21:41:05.919Z,15.30
2017-09-21T21:43:34.005Z,15.20
2017-09-21T21:46:02.116Z,15.30
2017-09-21T21:48:30.181Z,15.20
2017-09-21T21:50:58.250Z,15.20
2017-09-21T21:53:26.335Z,15.10
2017-09-21T21:55:54.406Z,15.10
2017-09-21T21:58:22.479Z,15.10
2017-09-21T22:00:50.616Z,15.00
2017-09-21T22:03:18.688Z,15.00
2017-09-21T22:05:46.758Z,15.00
2017-09-21T22:08:15.708Z,14.90
2017-09-21T22:10:43.796Z,14.90
2017-09-21T22:13:11.852Z,14.90
2017-09-21T22:15:39.939Z,14.90
2017-09-21T22:18:08.010Z,14.80
2017-09-21T22:20:36.079Z,14.80
2017-09-21T22:23:04.175Z,14.70
2017-09-21T22:25:32.233Z,14.70
2017-09-21T22:28:00.294Z,14.70
2017-09-21T22:30:28.372Z,14.60
2017-09-21T22:32:56.415Z,14.60
2017-09-21T22:35:24.522Z,14.60
2017-09-21T22:37:52.594Z,14.60
2017-09-21T22:40:20.652Z,14.60
2017-09-21T22:42:48.727Z,14.60
2017-09-21T22:45:16.814Z,14.60
2017-09-21T22:47:46.409Z,14.50
2017-09-21T22:50:14.477Z,14.50
2017-09-21T22:52:42.546Z,14.50
2017-09-21T22:55:11.419Z,14.50
2017-09-21T22:57:39.482Z,14.40
2017-09-21T23:00:07.555Z,14.50
2017-09-21T23:02:35.620Z,14.40
2017-09-21T23:05:03.696Z,14.40
2017-09-21T23:07:31.776Z,14.40
2017-09-21T23:10:00.622Z,14.40
2017-09-21T23:12:28.713Z,14.40
2017-09-21T23:14:56.787Z,14.40
2017-09-21T23:17:24.867Z,14.40
2017-09-21T23:19:52.933Z,14.30
2017-09-21T23:22:21.780Z,14.30
2017-09-21T23:24:49.843Z,14.20
2017-09-21T23:27:17.919Z,14.20
2017-09-21T23:29:46.003Z,14.20
2017-09-21T23:32:14.078Z,14.20
2017-09-21T23:34:42.170Z,14.20
2017-09-21T23:37:10.262Z,14.20
2017-09-21T23:39:38.322Z,14.20
2017-09-21T23:42:06.395Z,14.20
2017-09-21T23:44:34.471Z,14.20
2017-09-21T23:47:02.547Z,14.10
2017-09-21T23:49:30.633Z,14.20
2017-09-21T23:51:59.464Z,14.10
2017-09-21T23:54:27.543Z,14.00
2017-09-21T23:56:55.619Z,14.00
2017-09-21T23:59:24.455Z,14.00
